sensor_id;sensor_type;location;lat;lon;timestamp;temperature;humidity
46340;DHT22;47273;49.274;8.708;2022-07-12T03:31:05;16.10;99.90
46340;DHT22;47273;49.274;8.708;2022-07-12T03:33:30;16.10;99.90
46340;DHT22;47273;49.274;8.708;2022-07-12T03:35:56;16.00;99.90
46340;DHT22;47273;49.274;8.708;2022-07-12T03:38:22;16.00;99.90
46340;DHT22;47273;49.274;8.708;2022-07-12T03:40:48;16.00;99.90
46340;DHT22;47273;49.274;8.708;2022-07-12T03:43:17;16.00;99.90
46340;DHT22;47273;49.274;8.708;2022-07-12T03:45:43;16.00;99.90
46340;DHT22;47273;49.274;8.708;2022-07-12T03:48:16;16.00;99.90
46340;DHT22;47273;49.274;8.708;2022-07-12T03:50:42;15.90;99.90
46340;DHT22;47273;49.274;8.708;2022-07-12T03:53:07;15.90;99.90
46340;DHT22;47273;49.274;8.708;2022-07-12T03:55:33;15.80;99.90
46340;DHT22;47273;49.274;8.708;2022-07-12T03:58:01;15.70;99.90
46340;DHT22;47273;49.274;8.708;2022-07-12T04:00:29;15.70;99.90
46340;DHT22;47273;49.274;8.708;2022-07-12T04:02:55;15.70;99.90
46340;DHT22;47273;49.274;8.708;2022-07-12T04:05:21;15.70;99.90
46340;DHT22;47273;49.274;8.708;2022-07-12T04:07:51;15.60;99.90
46340;DHT22;47273;49.274;8.708;2022-07-12T04:10:20;15.60;99.90
46340;DHT22;47273;49.274;8.708;2022-07-12T04:12:59;15.70;99.90
46340;DHT22;47273;49.274;8.708;2022-07-12T04:15:25;15.70;99.90
46340;DHT22;47273;49.274;8.708;2022-07-12T04:17:51;15.80;99.90
46340;DHT22;47273;49.274;8.708;2022-07-12T04:20:16;15.80;99.90
46340;DHT22;47273;49.274;8.708;2022-07-12T04:22:42;15.80;99.90
46340;DHT22;47273;49.274;8.708;2022-07-12T04:25:09;15.90;99.90
46340;DHT22;47273;49.274;8.708;2022-07-12T04:27:35;15.90;99.90
46340;DHT22;47273;49.274;8.708;2022-07-12T04:30:05;16.00;99.90
46340;DHT22;47273;49.274;8.708;2022-07-12T04:32:31;16.00;99.90
46340;DHT22;47273;49.274;8.708;2022-07-12T04:34:57;16.00;99.90
46340;DHT22;47273;49.274;8.708;2022-07-12T04:37:22;15.90;99.90
46340;DHT22;47273;49.274;8.708;2022-07-12T04:39:48;15.90;99.90
46340;DHT22;47273;49.274;8.708;2022-07-12T04:42:14;16.00;99.90
46340;DHT22;47273;49.274;8.708;2022-07-12T04:44:42;16.10;99.90
46340;DHT22;47273;49.274;8.708;2022-07-12T04:47:13;16.20;99.90
46340;DHT22;47273;49.274;8.708;2022-07-12T04:49:39;16.30;99.90
46340;DHT22;47273;49.274;8.708;2022-07-12T04:52:07;16.20;99.90
46340;DHT22;47273;49.274;8.708;2022-07-12T04:54:33;16.20;99.90
46340;DHT22;47273;49.274;8.708;2022-07-12T04:56:59;16.10;99.90
46340;DHT22;47273;49.274;8.708;2022-07-12T04:59:27;16.20;99.90
46340;DHT22;47273;49.274;8.708;2022-07-12T05:01:54;16.20;99.90
46340;DHT22;47273;49.274;8.708;2022-07-12T05:04:26;16.30;99.90
46340;DHT22;47273;49.274;8.708;2022-07-12T05:06:54;16.40;99.90
46340;DHT22;47273;49.274;8.708;2022-07-12T05:09:21;16.40;99.90
46340;DHT22;47273;49.274;8.708;2022-07-12T05:11:47;16.50;99.90
46340;DHT22;47273;49.274;8.708;2022-07-12T05:14:13;16.60;99.90
46340;DHT22;47273;49.274;8.708;2022-07-12T05:16:38;16.60;99.90
46340;DHT22;47273;49.274;8.708;2022-07-12T05:19:04;16.70;99.90
46340;DHT22;47273;49.274;8.708;2022-07-12T05:21:30;16.90;99.90
46340;DHT22;47273;49.274;8.708;2022-07-12T05:23:57;16.90;99.90
46340;DHT22;47273;49.274;8.708;2022-07-12T05:26:23;17.00;99.90
46340;DHT22;47273;49.274;8.708;2022-07-12T05:28:49;17.00;99.90
46340;DHT22;47273;49.274;8.708;2022-07-12T05:31:14;17.20;99.90
46340;DHT22;47273;49.274;8.708;2022-07-12T05:33:40;17.20;99.90
46340;DHT22;47273;49.274;8.708;2022-07-12T05:36:06;17.30;99.90
46340;DHT22;47273;49.274;8.708;2022-07-12T05:38:33;17.30;99.90
46340;DHT22;47273;49.274;8.708;2022-07-12T05:40:59;17.40;99.90
46340;DHT22;47273;49.274;8.708;2022-07-12T05:43:25;17.40;99.90
46340;DHT22;47273;49.274;8.708;2022-07-12T05:45:51;17.50;99.90
46340;DHT22;47273;49.274;8.708;2022-07-12T05:48:17;17.60;99.70
46340;DHT22;47273;49.274;8.708;2022-07-12T05:50:43;17.60;99.30
46340;DHT22;47273;49.274;8.708;2022-07-12T05:53:08;17.70;99.10
46340;DHT22;47273;49.274;8.708;2022-07-12T05:55:50;17.80;98.90
46340;DHT22;47273;49.274;8.708;2022-07-12T05:58:20;17.90;98.50
46340;DHT22;47273;49.274;8.708;2022-07-12T06:00:46;17.90;98.20
46340;DHT22;47273;49.274;8.708;2022-07-12T06:03:13;18.10;97.50
46340;DHT22;47273;49.274;8.708;2022-07-12T06:05:39;18.20;97.20
46340;DHT22;47273;49.274;8.708;2022-07-12T06:08:11;18.20;96.60
46340;DHT22;47273;49.274;8.708;2022-07-12T06:10:42;18.20;96.50
46340;DHT22;47273;49.274;8.708;2022-07-12T06:13:08;18.20;96.30
46340;DHT22;47273;49.274;8.708;2022-07-12T06:15:45;18.30;96.70
46340;DHT22;47273;49.274;8.708;2022-07-12T06:18:40;18.30;96.50
46340;DHT22;47273;49.274;8.708;2022-07-12T06:25:11;18.50;95.40
46340;DHT22;47273;49.274;8.708;2022-07-12T06:27:38;18.60;95.20
46340;DHT22;47273;49.274;8.708;2022-07-12T06:30:05;18.80;94.70
46340;DHT22;47273;49.274;8.708;2022-07-12T06:32:47;19.00;94.30
46340;DHT22;47273;49.274;8.708;2022-07-12T06:35:17;19.10;93.60
46340;DHT22;47273;49.274;8.708;2022-07-12T06:37:46;19.20;93.10
46340;DHT22;47273;49.274;8.708;2022-07-12T06:40:12;19.30;93.00
46340;DHT22;47273;49.274;8.708;2022-07-12T06:42:48;19.30;92.70
46340;DHT22;47273;49.274;8.708;2022-07-12T06:45:14;19.40;92.50
46340;DHT22;47273;49.274;8.708;2022-07-12T06:47:40;19.50;92.40
46340;DHT22;47273;49.274;8.708;2022-07-12T06:50:06;19.50;92.20
46340;DHT22;47273;49.274;8.708;2022-07-12T06:52:32;19.60;92.20
46340;DHT22;47273;49.274;8.708;2022-07-12T06:54:58;19.60;91.90
46340;DHT22;47273;49.274;8.708;2022-07-12T06:57:24;19.70;91.50
46340;DHT22;47273;49.274;8.708;2022-07-12T06:59:54;19.90;91.20
46340;DHT22;47273;49.274;8.708;2022-07-12T07:02:25;19.90;91.00
46340;DHT22;47273;49.274;8.708;2022-07-12T07:04:51;20.00;90.60
46340;DHT22;47273;49.274;8.708;2022-07-12T07:07:17;20.10;90.30
46340;DHT22;47273;49.274;8.708;2022-07-12T07:09:49;20.20;90.10
46340;DHT22;47273;49.274;8.708;2022-07-12T07:12:15;20.30;89.80
46340;DHT22;47273;49.274;8.708;2022-07-12T07:14:41;20.30;89.10
46340;DHT22;47273;49.274;8.708;2022-07-12T07:17:07;20.30;88.60
46340;DHT22;47273;49.274;8.708;2022-07-12T07:19:37;20.40;88.60
46340;DHT22;47273;49.274;8.708;2022-07-12T07:22:05;20.60;87.60
46340;DHT22;47273;49.274;8.708;2022-07-12T07:24:31;20.60;87.20
46340;DHT22;47273;49.274;8.708;2022-07-12T07:26:57;20.80;86.80
46340;DHT22;47273;49.274;8.708;2022-07-12T07:29:23;20.80;86.70
46340;DHT22;47273;49.274;8.708;2022-07-12T07:32:07;21.00;86.60
46340;DHT22;47273;49.274;8.708;2022-07-12T07:34:33;21.00;86.10
46340;DHT22;47273;49.274;8.708;2022-07-12T07:36:59;21.10;86.00
46340;DHT22;47273;49.274;8.708;2022-07-12T07:39:25;21.10;84.60
46340;DHT22;47273;49.274;8.708;2022-07-12T07:41:51;21.10;85.10
46340;DHT22;47273;49.274;8.708;2022-07-12T07:44:16;21.20;84.30
46340;DHT22;47273;49.274;8.708;2022-07-12T07:46:45;21.40;83.60
46340;DHT22;47273;49.274;8.708;2022-07-12T07:49:11;21.50;83.10
46340;DHT22;47273;49.274;8.708;2022-07-12T07:51:39;21.60;82.20
46340;DHT22;47273;49.274;8.708;2022-07-12T07:54:05;21.60;82.30
46340;DHT22;47273;49.274;8.708;2022-07-12T07:56:37;21.70;81.60
46340;DHT22;47273;49.274;8.708;2022-07-12T07:59:06;21.70;80.80
46340;DHT22;47273;49.274;8.708;2022-07-12T08:01:33;21.70;80.60
46340;DHT22;47273;49.274;8.708;2022-07-12T08:04:12;21.90;79.80
46340;DHT22;47273;49.274;8.708;2022-07-12T08:06:38;22.00;80.40
46340;DHT22;47273;49.274;8.708;2022-07-12T08:09:04;22.20;79.70
46340;DHT22;47273;49.274;8.708;2022-07-12T08:11:31;22.30;78.80
46340;DHT22;47273;49.274;8.708;2022-07-12T08:14:02;22.40;77.70
46340;DHT22;47273;49.274;8.708;2022-07-12T08:16:29;22.40;78.20
46340;DHT22;47273;49.274;8.708;2022-07-12T08:18:54;22.60;76.50
46340;DHT22;47273;49.274;8.708;2022-07-12T08:21:21;22.70;76.00
46340;DHT22;47273;49.274;8.708;2022-07-12T08:23:47;22.80;75.60
46340;DHT22;47273;49.274;8.708;2022-07-12T08:26:13;23.00;76.80
46340;DHT22;47273;49.274;8.708;2022-07-12T08:28:39;23.00;76.00
46340;DHT22;47273;49.274;8.708;2022-07-12T08:31:05;23.20;75.80
46340;DHT22;47273;49.274;8.708;2022-07-12T08:33:40;23.30;74.00
46340;DHT22;47273;49.274;8.708;2022-07-12T08:36:16;23.30;73.50
46340;DHT22;47273;49.274;8.708;2022-07-12T08:38:42;23.40;73.50
46340;DHT22;47273;49.274;8.708;2022-07-12T08:41:12;23.60;73.50
46340;DHT22;47273;49.274;8.708;2022-07-12T08:43:38;23.70;73.10
46340;DHT22;47273;49.274;8.708;2022-07-12T08:46:13;23.70;71.80
46340;DHT22;47273;49.274;8.708;2022-07-12T08:48:40;23.80;72.40
46340;DHT22;47273;49.274;8.708;2022-07-12T08:51:14;23.90;70.80
46340;DHT22;47273;49.274;8.708;2022-07-12T08:53:43;24.00;71.50
46340;DHT22;47273;49.274;8.708;2022-07-12T08:56:33;24.10;70.80
46340;DHT22;47273;49.274;8.708;2022-07-12T08:59:31;24.30;71.10
46340;DHT22;47273;49.274;8.708;2022-07-12T09:01:59;24.20;68.90
46340;DHT22;47273;49.274;8.708;2022-07-12T09:04:26;24.40;70.10
46340;DHT22;47273;49.274;8.708;2022-07-12T09:06:55;24.50;69.70
46340;DHT22;47273;49.274;8.708;2022-07-12T09:09:31;24.60;69.70
46340;DHT22;47273;49.274;8.708;2022-07-12T09:11:57;24.70;67.40
46340;DHT22;47273;49.274;8.708;2022-07-12T09:14:26;24.90;68.10
46340;DHT22;47273;49.274;8.708;2022-07-12T09:17:05;25.10;68.50
46340;DHT22;47273;49.274;8.708;2022-07-12T09:19:36;25.30;65.60
46340;DHT22;47273;49.274;8.708;2022-07-12T09:22:02;25.30;66.00
46340;DHT22;47273;49.274;8.708;2022-07-12T09:24:31;25.20;66.20
46340;DHT22;47273;49.274;8.708;2022-07-12T09:27:01;25.20;64.70
46340;DHT22;47273;49.274;8.708;2022-07-12T09:29:27;25.10;65.90
46340;DHT22;47273;49.274;8.708;2022-07-12T09:31:53;25.10;65.70
46340;DHT22;47273;49.274;8.708;2022-07-12T09:34:38;24.90;65.30
46340;DHT22;47273;49.274;8.708;2022-07-12T09:37:24;24.80;66.90
46340;DHT22;47273;49.274;8.708;2022-07-12T09:39:53;24.60;65.20
46340;DHT22;47273;49.274;8.708;2022-07-12T09:42:23;24.40;66.20
46340;DHT22;47273;49.274;8.708;2022-07-12T09:44:51;24.40;69.30
46340;DHT22;47273;49.274;8.708;2022-07-12T09:47:18;24.30;65.70
46340;DHT22;47273;49.274;8.708;2022-07-12T09:49:45;24.50;67.80
46340;DHT22;47273;49.274;8.708;2022-07-12T09:52:15;24.50;67.10
46340;DHT22;47273;49.274;8.708;2022-07-12T09:54:46;24.70;66.90
46340;DHT22;47273;49.274;8.708;2022-07-12T09:57:30;25.00;66.20
46340;DHT22;47273;49.274;8.708;2022-07-12T09:59:57;25.20;63.20
46340;DHT22;47273;49.274;8.708;2022-07-12T10:02:26;25.10;61.90
46340;DHT22;47273;49.274;8.708;2022-07-12T10:04:53;25.00;63.10
46340;DHT22;47273;49.274;8.708;2022-07-12T10:07:20;25.20;64.30
46340;DHT22;47273;49.274;8.708;2022-07-12T10:09:52;25.20;64.60
46340;DHT22;47273;49.274;8.708;2022-07-12T10:12:20;25.30;65.30
46340;DHT22;47273;49.274;8.708;2022-07-12T10:14:48;25.60;64.60
46340;DHT22;47273;49.274;8.708;2022-07-12T10:17:29;25.80;63.30
46340;DHT22;47273;49.274;8.708;2022-07-12T10:20:17;26.00;64.10
46340;DHT22;47273;49.274;8.708;2022-07-12T10:22:44;26.00;62.70
46340;DHT22;47273;49.274;8.708;2022-07-12T10:25:42;26.10;62.30
46340;DHT22;47273;49.274;8.708;2022-07-12T10:28:08;26.10;61.70
46340;DHT22;47273;49.274;8.708;2022-07-12T10:30:42;26.20;62.10
46340;DHT22;47273;49.274;8.708;2022-07-12T10:33:35;26.50;61.80
46340;DHT22;47273;49.274;8.708;2022-07-12T10:36:03;26.90;59.80
46340;DHT22;47273;49.274;8.708;2022-07-12T10:38:31;27.00;61.00
46340;DHT22;47273;49.274;8.708;2022-07-12T10:41:00;27.10;60.90
46340;DHT22;47273;49.274;8.708;2022-07-12T10:43:40;27.20;58.90
46340;DHT22;47273;49.274;8.708;2022-07-12T10:46:24;27.50;60.00
46340;DHT22;47273;49.274;8.708;2022-07-12T10:48:51;27.80;58.20
46340;DHT22;47273;49.274;8.708;2022-07-12T10:51:37;28.00;58.90
46340;DHT22;47273;49.274;8.708;2022-07-12T10:54:19;28.20;58.60
46340;DHT22;47273;49.274;8.708;2022-07-12T10:56:55;28.40;57.60
46340;DHT22;47273;49.274;8.708;2022-07-12T10:59:21;28.50;55.80
46340;DHT22;47273;49.274;8.708;2022-07-12T11:01:47;28.50;57.50
46340;DHT22;47273;49.274;8.708;2022-07-12T11:04:14;28.70;57.30
46340;DHT22;47273;49.274;8.708;2022-07-12T11:06:42;29.00;55.70
46340;DHT22;47273;49.274;8.708;2022-07-12T11:09:12;29.10;54.70
46340;DHT22;47273;49.274;8.708;2022-07-12T11:11:45;29.20;55.10
46340;DHT22;47273;49.274;8.708;2022-07-12T11:14:20;29.30;56.70
46340;DHT22;47273;49.274;8.708;2022-07-12T11:16:46;29.60;55.80
46340;DHT22;47273;49.274;8.708;2022-07-12T11:19:16;29.90;55.60
46340;DHT22;47273;49.274;8.708;2022-07-12T11:21:45;30.00;55.70
46340;DHT22;47273;49.274;8.708;2022-07-12T11:24:20;30.00;52.80
46340;DHT22;47273;49.274;8.708;2022-07-12T11:26:47;29.80;54.10
46340;DHT22;47273;49.274;8.708;2022-07-12T11:29:12;29.40;55.80
46340;DHT22;47273;49.274;8.708;2022-07-12T11:31:38;29.10;55.30
46340;DHT22;47273;49.274;8.708;2022-07-12T11:34:04;29.20;55.40
46340;DHT22;47273;49.274;8.708;2022-07-12T11:36:30;29.50;54.20
46340;DHT22;47273;49.274;8.708;2022-07-12T11:38:56;29.60;53.00
46340;DHT22;47273;49.274;8.708;2022-07-12T11:41:22;29.80;53.30
46340;DHT22;47273;49.274;8.708;2022-07-12T11:43:52;30.10;54.00
46340;DHT22;47273;49.274;8.708;2022-07-12T11:46:18;30.70;53.20
46340;DHT22;47273;49.274;8.708;2022-07-12T11:48:44;31.10;52.00
46340;DHT22;47273;49.274;8.708;2022-07-12T11:51:11;31.60;51.60
46340;DHT22;47273;49.274;8.708;2022-07-12T11:53:38;31.90;50.40
46340;DHT22;47273;49.274;8.708;2022-07-12T11:56:06;32.20;49.90
46340;DHT22;47273;49.274;8.708;2022-07-12T11:58:36;32.60;50.40
46340;DHT22;47273;49.274;8.708;2022-07-12T12:01:05;32.80;48.10
46340;DHT22;47273;49.274;8.708;2022-07-12T12:03:45;32.90;48.30
46340;DHT22;47273;49.274;8.708;2022-07-12T12:06:11;33.70;48.80
46340;DHT22;47273;49.274;8.708;2022-07-12T12:08:37;34.30;47.80
46340;DHT22;47273;49.274;8.708;2022-07-12T12:11:05;33.90;48.30
46340;DHT22;47273;49.274;8.708;2022-07-12T12:13:31;33.90;48.70
46340;DHT22;47273;49.274;8.708;2022-07-12T12:15:59;33.50;46.90
46340;DHT22;47273;49.274;8.708;2022-07-12T12:20:59;33.70;48.50
46340;DHT22;47273;49.274;8.708;2022-07-12T12:23:28;34.10;48.00
46340;DHT22;47273;49.274;8.708;2022-07-12T12:26:12;34.80;46.20
46340;DHT22;47273;49.274;8.708;2022-07-12T12:28:48;33.70;47.00
46340;DHT22;47273;49.274;8.708;2022-07-12T12:31:18;33.30;47.80
46340;DHT22;47273;49.274;8.708;2022-07-12T12:33:52;32.80;46.20
46340;DHT22;47273;49.274;8.708;2022-07-12T12:36:29;32.60;48.70
46340;DHT22;47273;49.274;8.708;2022-07-12T12:39:01;32.60;47.70
46340;DHT22;47273;49.274;8.708;2022-07-12T12:41:30;33.00;47.90
46340;DHT22;47273;49.274;8.708;2022-07-12T12:44:05;33.80;49.00
46340;DHT22;47273;49.274;8.708;2022-07-12T12:46:50;33.60;49.30
46340;DHT22;47273;49.274;8.708;2022-07-12T12:49:19;33.30;48.70
46340;DHT22;47273;49.274;8.708;2022-07-12T12:51:55;33.10;49.30
46340;DHT22;47273;49.274;8.708;2022-07-12T12:54:34;33.30;48.00
46340;DHT22;47273;49.274;8.708;2022-07-12T12:57:01;33.10;48.30
46340;DHT22;47273;49.274;8.708;2022-07-12T12:59:27;33.80;47.50
46340;DHT22;47273;49.274;8.708;2022-07-12T13:01:53;33.60;49.40
46340;DHT22;47273;49.274;8.708;2022-07-12T13:04:19;33.20;48.80
46340;DHT22;47273;49.274;8.708;2022-07-12T13:06:45;33.10;49.50
46340;DHT22;47273;49.274;8.708;2022-07-12T13:09:10;33.00;49.50
46340;DHT22;47273;49.274;8.708;2022-07-12T13:11:38;32.80;47.70
46340;DHT22;47273;49.274;8.708;2022-07-12T13:14:05;32.80;49.20
46340;DHT22;47273;49.274;8.708;2022-07-12T13:16:31;32.90;49.50
46340;DHT22;47273;49.274;8.708;2022-07-12T13:18:57;32.70;49.50
46340;DHT22;47273;49.274;8.708;2022-07-12T13:21:22;32.80;48.70
46340;DHT22;47273;49.274;8.708;2022-07-12T13:23:48;32.70;47.10
46340;DHT22;47273;49.274;8.708;2022-07-12T13:26:14;33.20;46.50
46340;DHT22;47273;49.274;8.708;2022-07-12T13:28:39;33.50;47.40
46340;DHT22;47273;49.274;8.708;2022-07-12T13:31:05;33.40;47.30
46340;DHT22;47273;49.274;8.708;2022-07-12T13:33:31;33.50;47.20
46340;DHT22;47273;49.274;8.708;2022-07-12T13:35:57;33.60;47.70
46340;DHT22;47273;49.274;8.708;2022-07-12T13:38:23;33.70;47.50
46340;DHT22;47273;49.274;8.708;2022-07-12T13:40:49;33.80;47.20
46340;DHT22;47273;49.274;8.708;2022-07-12T13:43:14;33.80;47.20
46340;DHT22;47273;49.274;8.708;2022-07-12T13:45:40;33.90;48.00
46340;DHT22;47273;49.274;8.708;2022-07-12T13:48:09;33.90;47.30
46340;DHT22;47273;49.274;8.708;2022-07-12T13:50:36;33.80;47.90
46340;DHT22;47273;49.274;8.708;2022-07-12T13:53:01;34.00;47.90
46340;DHT22;47273;49.274;8.708;2022-07-12T13:55:28;34.50;46.90
46340;DHT22;47273;49.274;8.708;2022-07-12T13:57:54;34.50;47.30
46340;DHT22;47273;49.274;8.708;2022-07-12T14:00:19;34.30;46.80
46340;DHT22;47273;49.274;8.708;2022-07-12T14:02:48;34.20;47.90
46340;DHT22;47273;49.274;8.708;2022-07-12T14:05:15;34.00;47.40
46340;DHT22;47273;49.274;8.708;2022-07-12T14:07:42;34.10;47.00
46340;DHT22;47273;49.274;8.708;2022-07-12T14:10:10;34.20;46.60
46340;DHT22;47273;49.274;8.708;2022-07-12T16:23:16;32.00;46.60
46340;DHT22;47273;49.274;8.708;2022-07-12T16:25:47;31.90;47.50
46340;DHT22;47273;49.274;8.708;2022-07-12T16:28:13;31.80;48.30
46340;DHT22;47273;49.274;8.708;2022-07-12T16:30:38;31.70;48.70
46340;DHT22;47273;49.274;8.708;2022-07-12T16:39:47;31.20;49.00
46340;DHT22;47273;49.274;8.708;2022-07-12T16:42:17;31.10;48.90
46340;DHT22;47273;49.274;8.708;2022-07-12T16:45:05;31.10;48.70
46340;DHT22;47273;49.274;8.708;2022-07-12T16:47:34;31.10;49.00
46340;DHT22;47273;49.274;8.708;2022-07-12T16:50:00;31.10;49.00
46340;DHT22;47273;49.274;8.708;2022-07-12T16:52:29;31.00;48.60
46340;DHT22;47273;49.274;8.708;2022-07-12T16:54:55;31.00;49.50
46340;DHT22;47273;49.274;8.708;2022-07-12T16:57:22;31.00;48.80
46340;DHT22;47273;49.274;8.708;2022-07-12T16:59:50;30.80;48.90
46340;DHT22;47273;49.274;8.708;2022-07-12T17:02:15;30.60;49.50
46340;DHT22;47273;49.274;8.708;2022-07-12T17:04:41;30.50;49.60
46340;DHT22;47273;49.274;8.708;2022-07-12T17:07:07;30.40;49.90
46340;DHT22;47273;49.274;8.708;2022-07-12T17:09:33;30.30;49.30
46340;DHT22;47273;49.274;8.708;2022-07-12T17:11:58;30.20;49.00
46340;DHT22;47273;49.274;8.708;2022-07-12T17:14:27;30.10;50.10
46340;DHT22;47273;49.274;8.708;2022-07-12T17:16:53;30.00;50.60
46340;DHT22;47273;49.274;8.708;2022-07-12T17:19:19;29.90;50.30
46340;DHT22;47273;49.274;8.708;2022-07-12T17:21:45;29.90;50.30
46340;DHT22;47273;49.274;8.708;2022-07-12T17:24:10;29.70;50.70
46340;DHT22;47273;49.274;8.708;2022-07-12T17:26:36;29.70;50.20
46340;DHT22;47273;49.274;8.708;2022-07-12T17:29:02;29.60;51.60
46340;DHT22;47273;49.274;8.708;2022-07-12T17:31:34;29.50;51.90
46340;DHT22;47273;49.274;8.708;2022-07-12T17:34:00;29.40;52.10
46340;DHT22;47273;49.274;8.708;2022-07-12T17:36:26;29.40;52.40
46340;DHT22;47273;49.274;8.708;2022-07-12T17:38:51;29.30;53.00
46340;DHT22;47273;49.274;8.708;2022-07-12T17:41:17;29.20;53.10
46340;DHT22;47273;49.274;8.708;2022-07-12T17:43:44;29.10;52.20
46340;DHT22;47273;49.274;8.708;2022-07-12T17:49:34;28.90;51.50
46340;DHT22;47273;49.274;8.708;2022-07-12T17:52:09;28.80;52.10
46340;DHT22;47273;49.274;8.708;2022-07-12T17:54:35;28.70;52.40
46340;DHT22;47273;49.274;8.708;2022-07-12T17:57:01;28.60;52.80
46340;DHT22;47273;49.274;8.708;2022-07-12T17:59:26;28.50;52.40
46340;DHT22;47273;49.274;8.708;2022-07-12T18:01:55;28.40;53.40
46340;DHT22;47273;49.274;8.708;2022-07-12T18:07:48;28.20;53.30
46340;DHT22;47273;49.274;8.708;2022-07-12T18:10:14;28.00;53.30
46340;DHT22;47273;49.274;8.708;2022-07-12T18:12:40;27.80;53.90
46340;DHT22;47273;49.274;8.708;2022-07-12T18:15:24;27.70;55.40
46340;DHT22;47273;49.274;8.708;2022-07-12T18:18:11;27.50;55.80
46340;DHT22;47273;49.274;8.708;2022-07-12T18:20:41;27.50;56.40
46340;DHT22;47273;49.274;8.708;2022-07-12T18:27:02;27.20;56.50
46340;DHT22;47273;49.274;8.708;2022-07-12T18:33:03;27.10;56.10
46340;DHT22;47273;49.274;8.708;2022-07-12T18:35:31;27.00;56.90
46340;DHT22;47273;49.274;8.708;2022-07-12T18:37:57;27.00;56.90
46340;DHT22;47273;49.274;8.708;2022-07-12T18:40:29;26.90;57.20
46340;DHT22;47273;49.274;8.708;2022-07-12T18:42:55;26.90;57.30
46340;DHT22;47273;49.274;8.708;2022-07-12T18:45:22;26.80;57.30
46340;DHT22;47273;49.274;8.708;2022-07-12T18:47:48;26.70;57.20
46340;DHT22;47273;49.274;8.708;2022-07-12T18:50:13;26.70;57.40
46340;DHT22;47273;49.274;8.708;2022-07-12T18:52:39;26.60;57.00
46340;DHT22;47273;49.274;8.708;2022-07-12T18:55:06;26.60;57.50
46340;DHT22;47273;49.274;8.708;2022-07-12T18:57:37;26.50;58.10
46340;DHT22;47273;49.274;8.708;2022-07-12T19:00:23;26.40;58.10
46340;DHT22;47273;49.274;8.708;2022-07-12T19:02:54;26.30;58.10
46340;DHT22;47273;49.274;8.708;2022-07-12T19:05:20;26.30;58.10
46340;DHT22;47273;49.274;8.708;2022-07-12T19:07:46;26.10;58.00
46340;DHT22;47273;49.274;8.708;2022-07-12T19:10:12;26.00;59.60
46340;DHT22;47273;49.274;8.708;2022-07-12T19:12:53;25.90;59.80
46340;DHT22;47273;49.274;8.708;2022-07-12T19:15:19;25.80;60.60
46340;DHT22;47273;49.274;8.708;2022-07-12T19:17:50;25.70;60.60
46340;DHT22;47273;49.274;8.708;2022-07-12T19:23:58;25.40;60.10
46340;DHT22;47273;49.274;8.708;2022-07-12T19:26:29;25.20;60.20
46340;DHT22;47273;49.274;8.708;2022-07-12T19:29:31;25.20;60.40
46340;DHT22;47273;49.274;8.708;2022-07-12T19:31:59;25.10;61.20
46340;DHT22;47273;49.274;8.708;2022-07-12T19:41:14;24.70;63.00
46340;DHT22;47273;49.274;8.708;2022-07-12T19:44:03;24.60;64.60
46340;DHT22;47273;49.274;8.708;2022-07-12T19:46:34;24.40;65.10
46340;DHT22;47273;49.274;8.708;2022-07-12T19:50:07;24.40;65.30
46340;DHT22;47273;49.274;8.708;2022-07-12T19:52:48;24.20;65.50
46340;DHT22;47273;49.274;8.708;2022-07-12T19:55:28;24.10;66.20
46340;DHT22;47273;49.274;8.708;2022-07-12T19:58:01;24.00;66.00
46340;DHT22;47273;49.274;8.708;2022-07-12T20:00:30;23.90;67.80
46340;DHT22;47273;49.274;8.708;2022-07-12T20:02:55;23.80;67.20
46340;DHT22;47273;49.274;8.708;2022-07-12T20:05:29;23.70;68.00
46340;DHT22;47273;49.274;8.708;2022-07-12T20:08:05;23.60;69.00
46340;DHT22;47273;49.274;8.708;2022-07-12T20:20:10;23.20;68.70
46340;DHT22;47273;49.274;8.708;2022-07-12T20:22:36;23.00;68.30
46340;DHT22;47273;49.274;8.708;2022-07-12T20:25:04;23.00;67.80
46340;DHT22;47273;49.274;8.708;2022-07-12T20:27:30;22.90;68.30
46340;DHT22;47273;49.274;8.708;2022-07-12T20:29:56;22.70;68.40
